Time;durP1;ratioP1;P1;durP2;ratioP2;P2;SDS_P1;SDS_P2;PMS_P1;PMS_P2;Temp;Humidity;BMP_temperature;BMP_pressure;BME280_temperature;BME280_humidity;BME280_pressure;Samples;Min_cycle;Max_cycle;Signal;HPM_P1;HPM_P2
2021/08/03 00:00:49;;;;;;;4.20;0.40;;;;;;;19.99;59.48;99981.07;1707064;82;20994;-52
2021/08/03 00:03:16;;;;;;;0.75;0.23;;;;;;;20.02;59.23;99986.48;1705731;82;21041;-52
2021/08/03 00:05:48;;;;;;;0.25;0.20;;;;;;;19.96;59.43;99982.93;1700620;82;21040;-52
2021/08/03 00:08:22;;;;;;;1.85;0.30;;;;;;;19.90;59.62;99976.41;1706690;83;21086;-52
2021/08/03 00:10:51;;;;;;;0.35;0.17;;;;;;;19.90;59.59;99983.17;1711786;82;21002;-52
2021/08/03 00:13:18;;;;;;;2.50;0.20;;;;;;;19.89;59.79;99982.88;1708132;82;21149;-52
2021/08/03 00:15:52;;;;;;;0.50;0.20;;;;;;;19.90;59.52;99982.62;1705601;82;21556;-52
2021/08/03 00:18:20;;;;;;;0.20;0.20;;;;;;;19.87;59.69;99992.59;1693122;83;21014;-52
2021/08/03 00:20:48;;;;;;;0.17;0.17;;;;;;;19.82;59.72;99987.97;1708080;83;21590;-52
2021/08/03 00:23:15;;;;;;;0.37;0.20;;;;;;;19.83;59.82;99993.67;1708116;82;21212;-53
2021/08/03 00:25:44;;;;;;;0.25;0.25;;;;;;;19.91;59.74;99994.25;1705914;82;21026;-53
2021/08/03 00:28:11;;;;;;;0.75;0.30;;;;;;;20.00;59.46;99996.24;1696908;82;21457;-52
2021/08/03 00:30:38;;;;;;;0.20;0.20;;;;;;;20.01;59.58;100000.56;1701274;82;21053;-52
2021/08/03 00:33:04;;;;;;;2.98;0.35;;;;;;;20.02;59.49;99999.50;1706399;82;21212;-53
2021/08/03 00:35:31;;;;;;;0.93;0.20;;;;;;;20.05;59.54;100004.11;1700525;83;21094;-52
2021/08/03 00:38:01;;;;;;;3.67;0.20;;;;;;;20.05;59.40;100002.77;1707351;83;21033;-52
2021/08/03 00:40:30;;;;;;;2.05;0.25;;;;;;;19.98;59.62;100002.42;1719642;82;21038;-52
2021/08/03 00:42:57;;;;;;;0.45;0.10;;;;;;;19.96;59.43;99995.11;1697177;82;20965;-53
2021/08/03 00:45:24;;;;;;;1.42;0.30;;;;;;;19.93;59.66;99996.99;1717339;82;21576;-52
2021/08/03 00:47:53;;;;;;;2.10;0.23;;;;;;;19.92;59.60;99998.05;1709334;82;21600;-52
2021/08/03 00:50:19;;;;;;;1.00;0.20;;;;;;;19.91;59.88;99992.89;1715809;82;21001;-53
2021/08/03 00:52:46;;;;;;;1.45;0.30;;;;;;;19.93;59.83;99991.58;1680362;83;21065;-53
2021/08/03 00:55:13;;;;;;;0.85;0.20;;;;;;;20.01;59.58;99991.09;1708659;82;21041;-53
2021/08/03 00:57:42;;;;;;;0.45;0.15;;;;;;;20.05;59.44;99994.64;1716934;82;20982;-53
2021/08/03 01:00:11;;;;;;;0.65;0.30;;;;;;;20.03;59.67;99991.64;1707480;82;20994;-53
2021/08/03 01:03:42;;;;;;;0.47;0.30;;;;;;;20.04;59.29;99995.16;1792154;78;22880;-53
2021/08/03 01:06:36;;;;;;;1.17;0.20;;;;;;;19.96;59.46;100001.87;1760900;80;21014;-53
2021/08/03 01:09:34;;;;;;;0.62;0.20;;;;;;;19.93;59.33;100003.76;1748005;81;21033;-53
2021/08/03 01:12:50;;;;;;;4.78;0.65;;;;;;;19.88;59.42;100015.07;1733906;80;20999;-52
2021/08/03 01:15:24;;;;;;;3.42;0.42;;;;;;;19.80;59.67;100014.46;1703581;83;21309;-52
2021/08/03 01:18:14;;;;;;;0.68;0.20;;;;;;;19.71;60.04;100018.67;1683394;83;21058;-52
2021/08/03 01:20:58;;;;;;;1.30;0.40;;;;;;;19.74;59.82;100021.42;1640932;86;21064;-51
2021/08/03 01:23:37;;;;;;;0.42;0.42;;;;;;;19.76;59.85;100031.44;1652258;85;21089;-52
2021/08/03 01:26:25;;;;;;;1.02;0.40;;;;;;;19.74;59.82;100025.48;1664737;85;21084;-52
2021/08/03 01:29:04;;;;;;;0.37;0.30;;;;;;;19.73;59.86;100027.92;1671509;84;21056;-52
2021/08/03 01:31:39;;;;;;;2.30;0.40;;;;;;;19.71;59.77;100036.80;1684286;84;21053;-52
2021/08/03 01:34:14;;;;;;;0.70;0.30;;;;;;;19.70;59.94;100027.84;1650174;85;21099;-52
2021/08/03 01:36:50;;;;;;;0.98;0.40;;;;;;;19.68;59.95;100023.23;1639496;86;21586;-52
2021/08/03 01:39:25;;;;;;;8.53;0.45;;;;;;;19.70;59.93;100033.25;1639578;85;21039;-52
2021/08/03 01:41:56;;;;;;;1.57;0.20;;;;;;;19.68;60.02;100035.39;1650592;85;21133;-53
2021/08/03 01:44:23;;;;;;;1.82;0.30;;;;;;;19.65;60.05;100033.23;1639912;85;21787;-53
2021/08/03 01:46:54;;;;;;;2.62;0.20;;;;;;;19.71;59.85;100040.30;1615790;87;21021;-53
2021/08/03 01:49:22;;;;;;;0.88;0.30;;;;;;;19.75;59.65;100044.70;1644207;86;21465;-53
2021/08/03 01:51:51;;;;;;;0.70;0.60;;;;;;;19.74;59.67;100048.46;1652926;86;21029;-53
2021/08/03 01:54:19;;;;;;;0.53;0.40;;;;;;;19.69;59.59;100046.51;1621271;87;21260;-51
2021/08/03 01:56:47;;;;;;;0.35;0.20;;;;;;;19.60;59.84;100045.33;1665896;84;21050;-52
2021/08/03 01:59:16;;;;;;;0.55;0.45;;;;;;;19.55;60.06;100054.73;1672234;84;21092;-52
2021/08/03 02:01:45;;;;;;;0.42;0.20;;;;;;;19.53;60.10;100050.13;1647418;84;21061;-52
2021/08/03 02:04:14;;;;;;;0.45;0.30;;;;;;;19.49;60.14;100046.30;1644925;86;21529;-52
2021/08/03 02:06:41;;;;;;;0.55;0.33;;;;;;;19.46;60.25;100058.45;1648071;86;21039;-52
2021/08/03 02:09:10;;;;;;;1.12;0.33;;;;;;;19.43;60.35;100063.00;1649745;86;21537;-52
2021/08/03 02:11:39;;;;;;;0.65;0.20;;;;;;;19.51;60.53;100065.78;1637618;86;21054;-52
2021/08/03 02:14:09;;;;;;;0.30;0.20;;;;;;;19.54;60.16;100067.44;1640650;86;21011;-51
2021/08/03 02:16:38;;;;;;;0.68;0.30;;;;;;;19.51;60.12;100067.13;1632681;86;21038;-51
2021/08/03 02:19:07;;;;;;;1.77;0.30;;;;;;;19.41;60.42;100067.30;1644867;86;20979;-52
2021/08/03 02:21:38;;;;;;;0.55;0.28;;;;;;;19.37;60.77;100067.53;1632330;87;21102;-51
2021/08/03 02:24:04;;;;;;;0.82;0.30;;;;;;;19.38;60.68;100069.17;1637111;86;21042;-51
2021/08/03 02:26:32;;;;;;;0.95;0.30;;;;;;;19.35;60.71;100068.32;1637288;86;21074;-51
2021/08/03 02:29:00;;;;;;;0.68;0.20;;;;;;;19.32;60.96;100067.47;1639894;86;21082;-52
2021/08/03 02:31:51;;;;;;;0.57;0.20;;;;;;;19.39;60.69;100074.04;1642042;86;21023;-52
2021/08/03 02:34:39;;;;;;;1.10;0.20;;;;;;;19.46;60.84;100070.61;1629788;87;21070;-52
2021/08/03 02:37:12;;;;;;;0.98;0.53;;;;;;;19.56;60.57;100076.11;1643573;86;21103;-53
2021/08/03 02:39:41;;;;;;;0.60;0.50;;;;;;;19.52;60.52;100078.23;1643251;86;21039;-53
2021/08/03 02:42:09;;;;;;;1.27;0.50;;;;;;;19.40;60.71;100078.36;1643832;86;21022;-53
2021/08/03 02:44:39;;;;;;;2.08;0.30;;;;;;;19.25;61.04;100083.89;1630189;86;21182;-52
2021/08/03 02:47:18;;;;;;;0.88;0.35;;;;;;;19.14;61.45;100095.64;1641231;86;21162;-53
2021/08/03 02:49:48;;;;;;;0.85;0.20;;;;;;;19.08;61.77;100102.56;1641016;86;20989;-53
2021/08/03 02:52:17;;;;;;;0.47;0.28;;;;;;;19.15;61.79;100099.95;1633141;86;21027;-53
2021/08/03 02:54:57;;;;;;;4.03;0.40;;;;;;;19.24;61.60;100098.45;1643425;86;21506;-53
2021/08/03 02:57:27;;;;;;;0.40;0.40;;;;;;;19.32;61.54;100096.38;1638847;86;21051;-53
2021/08/03 02:59:59;;;;;;;2.95;0.88;;;;;;;19.37;61.07;100095.91;1642381;86;21110;-53
2021/08/03 03:02:30;;;;;;;2.02;0.70;;;;;;;19.40;61.01;100100.81;1629036;85;21110;-55
2021/08/03 03:05:12;;;;;;;0.88;0.40;;;;;;;19.55;60.83;100106.94;1649047;85;20999;-54
2021/08/03 03:07:51;;;;;;;2.83;0.80;;;;;;;19.84;60.22;100108.88;1643632;85;21634;-54
2021/08/03 03:10:29;;;;;;;0.75;0.40;;;;;;;20.35;58.89;100107.71;1692160;83;21045;-55
2021/08/03 03:13:01;;;;;;;0.30;0.30;;;;;;;20.80;57.17;100114.00;1656079;85;20999;-55
2021/08/03 03:15:30;;;;;;;3.50;0.57;;;;;;;21.22;56.10;100110.16;1704639;83;21032;-55
2021/08/03 03:17:58;;;;;;;1.50;0.72;;;;;;;21.57;55.01;100104.89;1707761;83;20993;-55
2021/08/03 03:20:25;;;;;;;0.50;0.50;;;;;;;21.84;53.99;100102.50;1701845;83;21073;-54
2021/08/03 03:22:54;;;;;;;2.22;0.47;;;;;;;22.05;53.23;100106.60;1695345;83;21090;-55
2021/08/03 03:25:24;;;;;;;2.80;0.70;;;;;;;22.31;52.74;100109.62;1650619;85;21082;-55
2021/08/03 03:27:57;;;;;;;1.70;0.53;;;;;;;22.67;51.63;100104.15;1656403;85;21472;-55
2021/08/03 03:30:25;;;;;;;1.27;0.50;;;;;;;23.00;51.07;100112.78;1642090;85;21631;-55
2021/08/03 03:32:54;;;;;;;0.68;0.47;;;;;;;23.44;49.94;100116.72;1652192;85;21042;-54
2021/08/03 03:35:23;;;;;;;1.17;0.55;;;;;;;23.74;49.16;100117.09;1693716;83;21105;-54
2021/08/03 03:37:52;;;;;;;2.47;0.40;;;;;;;24.02;48.26;100119.66;1661842;83;21086;-55
2021/08/03 03:40:22;;;;;;;0.68;0.55;;;;;;;24.27;47.34;100122.72;1695234;83;21050;-55
2021/08/03 03:42:54;;;;;;;0.70;0.70;;;;;;;24.49;46.90;100120.10;1695202;83;21066;-55
2021/08/03 03:45:23;;;;;;;0.62;0.40;;;;;;;24.78;45.98;100128.28;1671236;85;20999;-56
2021/08/03 03:48:00;;;;;;;0.80;0.60;;;;;;;25.06;45.42;100133.99;1692596;83;21052;-56
2021/08/03 03:50:34;;;;;;;1.85;0.82;;;;;;;25.31;45.17;100136.99;1691879;85;21054;-56
2021/08/03 03:53:10;;;;;;;1.52;0.70;;;;;;;25.52;44.35;100138.09;1666900;83;21139;-55
2021/08/03 03:55:38;;;;;;;1.30;0.72;;;;;;;25.58;43.90;100135.02;1695725;83;21127;-55
2021/08/03 03:58:06;;;;;;;2.77;0.60;;;;;;;25.71;43.68;100137.58;1695504;83;21632;-55
2021/08/03 04:00:36;;;;;;;0.70;0.40;;;;;;;25.84;43.51;100139.58;1692580;83;21053;-55
2021/08/03 04:03:06;;;;;;;2.20;0.72;;;;;;;25.92;43.18;100146.31;1694874;83;21027;-55
2021/08/03 04:05:38;;;;;;;1.10;0.85;;;;;;;26.04;43.21;100147.22;1693802;83;21022;-60
2021/08/03 04:08:08;;;;;;;0.50;0.50;;;;;;;26.18;42.71;100144.02;1695290;83;21029;-58
2021/08/03 04:10:38;;;;;;;1.52;0.75;;;;;;;26.35;42.45;100133.90;1695672;83;21045;-58
2021/08/03 04:13:07;;;;;;;3.58;0.55;;;;;;;26.56;41.83;100136.26;1709555;83;21010;-58
2021/08/03 04:15:36;;;;;;;1.92;0.55;;;;;;;26.70;41.22;100137.14;1690898;83;21093;-57
2021/08/03 04:18:03;;;;;;;1.12;0.40;;;;;;;26.75;41.62;100144.45;1695337;83;21456;-52
2021/08/03 04:20:33;;;;;;;1.37;0.50;;;;;;;26.82;41.34;100143.47;1702593;83;22075;-56
2021/08/03 04:22:59;;;;;;;2.67;0.80;;;;;;;26.89;40.89;100139.80;1682073;83;21086;-56
2021/08/03 04:25:25;;;;;;;3.17;0.55;;;;;;;26.97;41.12;100145.11;1655142;84;21481;-57
2021/08/03 04:27:52;;;;;;;3.35;0.57;;;;;;;27.21;40.79;100144.92;1658108;84;21189;-56
2021/08/03 04:30:19;;;;;;;1.72;0.80;;;;;;;27.50;40.17;100146.54;1659050;84;21077;-57
2021/08/03 04:32:45;;;;;;;1.22;1.00;;;;;;;27.78;39.55;100148.66;1656251;84;20994;-55
2021/08/03 04:35:12;;;;;;;1.35;0.85;;;;;;;27.66;39.49;100148.41;1673459;84;21493;-57
2021/08/03 04:37:45;;;;;;;0.85;0.85;;;;;;;27.42;40.15;100143.17;1659719;84;21079;-60
2021/08/03 04:40:17;;;;;;;0.55;0.55;;;;;;;27.43;40.13;100146.97;1661231;84;21019;-59
2021/08/03 04:42:44;;;;;;;3.08;0.80;;;;;;;27.64;40.03;100145.97;1669074;84;21553;-60
2021/08/03 04:45:12;;;;;;;1.07;0.98;;;;;;;27.77;39.27;100147.86;1678974;83;20974;-57
2021/08/03 04:47:44;;;;;;;0.82;0.70;;;;;;;27.76;39.55;100142.16;1695307;83;21085;-57
2021/08/03 04:50:15;;;;;;;0.72;0.70;;;;;;;27.87;39.32;100150.13;1693118;83;21008;-57
2021/08/03 04:52:42;;;;;;;1.02;0.60;;;;;;;27.95;39.52;100151.61;1698939;83;21559;-57
2021/08/03 04:55:10;;;;;;;0.75;0.55;;;;;;;28.05;38.67;100150.55;1703027;83;21095;-58
2021/08/03 04:57:37;;;;;;;1.25;0.88;;;;;;;28.05;38.90;100146.98;1660769;85;21071;-57
2021/08/03 05:00:08;;;;;;;0.98;0.90;;;;;;;28.12;38.52;100150.94;1691935;83;21073;-58
2021/08/03 05:02:35;;;;;;;2.55;0.93;;;;;;;28.14;38.80;100150.60;1665547;84;21034;-58
2021/08/03 05:05:03;;;;;;;1.25;0.90;;;;;;;28.26;38.44;100152.23;1660873;84;21054;-58
2021/08/03 05:07:30;;;;;;;2.37;1.12;;;;;;;28.49;38.01;100150.28;1662113;84;21039;-58
2021/08/03 05:10:07;;;;;;;1.20;1.10;;;;;;;28.43;37.97;100124.13;1657680;84;21098;-58
2021/08/03 05:12:34;;;;;;;1.32;1.10;;;;;;;28.57;37.80;100146.57;1664347;84;21053;-59
2021/08/03 05:15:01;;;;;;;0.98;0.60;;;;;;;28.49;38.07;100148.91;1665284;84;21011;-58
2021/08/03 05:17:30;;;;;;;0.72;0.72;;;;;;;28.52;38.06;100148.33;1662593;84;21040;-59
2021/08/03 05:19:57;;;;;;;1.95;0.82;;;;;;;28.61;38.24;100148.93;1665917;84;21015;-59
2021/08/03 05:22:27;;;;;;;2.15;0.93;;;;;;;28.64;37.69;100154.59;1665633;84;21740;-58
2021/08/03 05:24:55;;;;;;;4.58;0.85;;;;;;;28.40;37.95;100120.64;1661955;84;21023;-59
2021/08/03 05:27:22;;;;;;;2.67;1.20;;;;;;;28.49;38.66;100154.39;1663828;84;21076;-59
2021/08/03 05:29:48;;;;;;;1.12;0.95;;;;;;;28.50;38.56;100156.03;1658132;84;21288;-59
2021/08/03 05:32:14;;;;;;;1.22;0.85;;;;;;;28.27;38.44;100155.20;1669782;84;21034;-59
2021/08/03 05:34:41;;;;;;;3.58;1.07;;;;;;;27.87;39.42;100157.77;1665950;84;21121;-58
2021/08/03 05:37:08;;;;;;;1.25;0.90;;;;;;;27.65;39.81;100157.72;1665841;84;21011;-59
2021/08/03 05:39:36;;;;;;;1.20;0.70;;;;;;;27.41;40.56;100125.95;1672692;84;21157;-60
2021/08/03 05:42:03;;;;;;;1.75;1.30;;;;;;;27.71;39.84;100165.53;1667352;84;21023;-60
2021/08/03 05:44:30;;;;;;;2.27;1.07;;;;;;;27.62;40.10;100165.20;1671523;84;21680;-58
2021/08/03 05:46:59;;;;;;;1.52;1.05;;;;;;;27.64;39.70;100165.13;1683413;83;20938;-59
2021/08/03 05:49:26;;;;;;;2.70;1.22;;;;;;;27.43;39.97;100177.64;1696483;83;21569;-60
2021/08/03 05:51:55;;;;;;;2.92;1.77;;;;;;;27.02;40.89;100168.84;1693482;83;21062;-60
2021/08/03 05:54:23;;;;;;;1.40;1.30;;;;;;;26.89;40.91;100169.88;1697614;83;21018;-60
2021/08/03 05:56:50;;;;;;;2.02;1.10;;;;;;;26.82;40.86;100166.72;1692351;83;21055;-59
2021/08/03 05:59:16;;;;;;;0.88;0.72;;;;;;;26.90;41.53;100170.67;1695353;83;21604;-59
2021/08/03 06:01:42;;;;;;;0.98;0.98;;;;;;;27.02;41.07;100170.20;1674137;83;21062;-59
2021/08/03 06:04:09;;;;;;;2.02;1.00;;;;;;;26.92;40.98;100176.69;1661515;85;21086;-59
2021/08/03 06:06:41;;;;;;;3.17;1.10;;;;;;;26.83;41.09;100188.06;1599310;88;21553;-59
2021/08/03 06:09:10;;;;;;;1.07;0.95;;;;;;;26.83;40.91;100185.32;1617476;87;21043;-60
2021/08/03 06:11:47;;;;;;;1.00;0.95;;;;;;;26.94;40.85;100187.56;1633024;86;21067;-60
2021/08/03 06:14:42;;;;;;;0.70;0.70;;;;;;;27.18;40.33;100192.03;1623322;86;21029;-60
2021/08/03 06:17:13;;;;;;;3.40;0.55;;;;;;;27.34;39.25;100196.69;1610623;86;21035;-60
2021/08/03 06:19:46;;;;;;;0.93;0.65;;;;;;;27.42;39.03;100196.53;1625120;86;21827;-59
2021/08/03 06:22:14;;;;;;;1.32;0.70;;;;;;;27.48;38.80;100198.88;1637601;86;21062;-58
2021/08/03 06:24:44;;;;;;;0.95;0.65;;;;;;;27.50;39.55;100200.75;1647661;86;21580;-58
2021/08/03 06:27:16;;;;;;;1.05;0.80;;;;;;;27.72;38.50;100204.10;1634190;86;21090;-59
2021/08/03 06:29:44;;;;;;;0.62;0.62;;;;;;;27.79;38.25;100207.00;1658425;85;21012;-59
2021/08/03 06:32:12;;;;;;;1.25;0.65;;;;;;;27.64;38.34;100207.56;1657190;86;21030;-60
2021/08/03 06:34:44;;;;;;;0.93;0.90;;;;;;;27.46;38.58;100210.66;1651809;85;21644;-59
2021/08/03 06:37:13;;;;;;;1.60;1.27;;;;;;;27.29;38.82;100212.64;1606126;87;21115;-59
2021/08/03 06:39:41;;;;;;;1.60;0.70;;;;;;;27.05;39.58;100210.08;1599369;88;21047;-59
2021/08/03 06:42:16;;;;;;;3.42;0.98;;;;;;;27.08;40.04;100212.75;1600439;87;21181;-59
2021/08/03 06:44:51;;;;;;;0.82;0.82;;;;;;;27.25;39.45;100217.09;1609162;86;21094;-59
2021/08/03 06:47:27;;;;;;;1.35;1.00;;;;;;;27.45;38.96;100215.09;1645121;85;21480;-59
2021/08/03 06:49:54;;;;;;;3.42;1.30;;;;;;;27.58;38.13;100213.70;1657132;85;21664;-60
2021/08/03 06:52:21;;;;;;;2.10;1.17;;;;;;;27.56;38.33;100213.77;1647071;85;21081;-60
2021/08/03 06:54:55;;;;;;;2.58;1.15;;;;;;;27.64;38.30;100217.72;1670423;85;21134;-60
2021/08/03 06:57:22;;;;;;;4.12;1.17;;;;;;;27.69;38.11;100212.95;1651796;85;21152;-59
2021/08/03 06:59:53;;;;;;;3.12;1.45;;;;;;;27.50;38.62;100219.08;1663821;85;20997;-59
2021/08/03 07:02:36;;;;;;;1.15;1.10;;;;;;;27.43;38.63;100221.44;1676304;85;21383;-60
2021/08/03 07:05:12;;;;;;;2.00;1.07;;;;;;;27.16;38.63;100191.52;1629799;86;38274;-58
2021/08/03 07:07:39;;;;;;;1.05;1.05;;;;;;;27.16;38.65;100225.19;1592439;88;21102;-55
2021/08/03 07:10:08;;;;;;;1.40;1.05;;;;;;;26.90;39.20;100227.56;1592085;84;21074;-55
2021/08/03 07:12:35;;;;;;;1.62;1.52;;;;;;;26.84;39.29;100227.94;1612052;87;21110;-57
2021/08/03 07:15:03;;;;;;;2.10;1.00;;;;;;;26.72;39.51;100226.50;1610144;88;21071;-55
2021/08/03 07:17:30;;;;;;;0.70;0.70;;;;;;;26.68;39.60;100221.94;1611099;88;21067;-55
2021/08/03 07:20:01;;;;;;;1.55;0.98;;;;;;;26.66;40.29;100226.89;1617648;88;21072;-55
2021/08/03 07:22:28;;;;;;;2.22;1.72;;;;;;;26.82;39.46;100228.80;1613309;88;21043;-55
2021/08/03 07:24:57;;;;;;;2.25;1.30;;;;;;;26.89;39.01;100225.93;1612867;88;21524;-55
2021/08/03 07:27:23;;;;;;;1.05;0.95;;;;;;;26.95;39.12;100220.62;1607114;88;21570;-55
2021/08/03 07:29:49;;;;;;;0.90;0.90;;;;;;;26.95;38.74;100224.72;1609253;88;21116;-54
2021/08/03 07:32:16;;;;;;;0.72;0.70;;;;;;;26.94;39.01;100222.31;1609035;88;21063;-55
2021/08/03 07:34:43;;;;;;;1.65;0.72;;;;;;;26.91;38.83;100221.53;1628811;86;21014;-55
2021/08/03 07:37:11;;;;;;;0.75;0.75;;;;;;;26.85;37.67;100224.11;1631741;88;21071;-55
2021/08/03 07:39:39;;;;;;;0.80;0.40;;;;;;;26.64;38.02;100226.39;1637302;88;21105;-54
2021/08/03 07:42:07;;;;;;;4.33;0.90;;;;;;;26.53;38.56;100227.06;1637282;86;21151;-54
2021/08/03 07:44:36;;;;;;;2.87;1.00;;;;;;;26.59;38.44;100229.44;1645582;85;21077;-54
2021/08/03 07:47:03;;;;;;;0.95;0.88;;;;;;;26.60;38.06;100222.07;1634134;86;21100;-54
2021/08/03 07:49:30;;;;;;;6.90;1.10;;;;;;;26.49;38.38;100225.48;1633686;86;21630;-54
2021/08/03 07:51:57;;;;;;;0.75;0.72;;;;;;;26.40;38.43;100225.89;1633554;86;21182;-55
2021/08/03 07:54:24;;;;;;;1.25;0.70;;;;;;;26.26;38.72;100229.94;1625459;86;21041;-54
2021/08/03 07:56:50;;;;;;;2.50;1.02;;;;;;;26.09;39.34;100225.00;1636658;86;21531;-55
2021/08/03 07:59:17;;;;;;;2.33;0.70;;;;;;;25.98;39.17;100227.05;1637224;86;21052;-54
2021/08/03 08:01:44;;;;;;;0.80;0.78;;;;;;;25.90;39.51;100225.48;1636458;86;21031;-54
2021/08/03 08:04:10;;;;;;;0.90;0.90;;;;;;;25.87;39.41;100221.44;1638084;85;21126;-54
2021/08/03 08:06:36;;;;;;;0.85;0.70;;;;;;;25.86;39.79;100225.81;1658602;85;21104;-54
2021/08/03 08:09:04;;;;;;;2.58;0.93;;;;;;;25.79;39.82;100221.53;1649168;85;21610;-54
2021/08/03 08:11:30;;;;;;;1.07;0.62;;;;;;;25.74;39.79;100222.96;1671328;86;20998;-54
2021/08/03 08:13:56;;;;;;;3.95;1.20;;;;;;;25.80;39.54;100224.52;1720626;82;21061;-54
2021/08/03 08:16:22;;;;;;;0.93;0.93;;;;;;;25.86;39.42;100214.90;1716323;82;21064;-53
2021/08/03 08:18:49;;;;;;;1.47;1.47;;;;;;;25.89;39.02;100218.42;1716551;82;21092;-54
2021/08/03 08:21:16;;;;;;;0.60;0.57;;;;;;;25.88;38.48;100212.68;1715506;82;21189;-55
2021/08/03 08:23:45;;;;;;;3.77;0.88;;;;;;;25.77;39.08;100212.83;1719342;82;21107;-54
2021/08/03 08:26:11;;;;;;;1.22;0.90;;;;;;;25.72;39.44;100218.91;1720686;83;20984;-55
2021/08/03 08:28:37;;;;;;;0.68;0.68;;;;;;;25.54;39.97;100213.13;1717911;82;21009;-54
2021/08/03 08:31:03;;;;;;;2.37;0.82;;;;;;;25.33;40.33;100217.98;1719308;82;21557;-55
2021/08/03 08:33:29;;;;;;;1.00;0.98;;;;;;;25.21;40.60;100216.19;1717292;82;21464;-56
2021/08/03 08:35:57;;;;;;;0.95;0.82;;;;;;;25.18;40.82;100214.03;1719279;82;20982;-54
2021/08/03 08:38:23;;;;;;;3.67;1.42;;;;;;;25.17;40.73;100219.24;1717130;83;21069;-54
2021/08/03 08:40:53;;;;;;;1.92;1.85;;;;;;;25.15;40.78;100214.63;1701659;82;21077;-54
2021/08/03 08:43:19;;;;;;;1.50;1.40;;;;;;;25.15;41.04;100210.54;1714129;82;21025;-56
2021/08/03 08:45:46;;;;;;;3.02;1.12;;;;;;;25.15;41.33;100211.91;1717789;83;20980;-56
2021/08/03 08:48:14;;;;;;;2.92;1.35;;;;;;;25.13;41.28;100210.82;1725937;82;21479;-56
2021/08/03 08:50:42;;;;;;;1.10;0.95;;;;;;;25.10;41.62;100212.75;1703304;82;21447;-56
2021/08/03 08:53:08;;;;;;;2.80;1.75;;;;;;;25.11;41.74;100210.83;1710609;82;21054;-56
2021/08/03 08:55:36;;;;;;;2.87;1.32;;;;;;;25.11;41.43;100209.47;1717119;82;20994;-55
2021/08/03 08:58:03;;;;;;;3.50;2.45;;;;;;;25.03;40.86;100210.38;1732463;82;20947;-56
2021/08/03 09:00:30;;;;;;;2.62;1.37;;;;;;;24.98;41.10;100214.52;1712991;83;21058;-56
2021/08/03 09:02:57;;;;;;;0.90;0.72;;;;;;;25.02;40.67;100213.39;1719165;83;21006;-55
2021/08/03 09:05:37;;;;;;;1.37;0.98;;;;;;;25.08;40.37;100210.87;1719603;82;21009;-55
2021/08/03 09:08:06;;;;;;;0.78;0.75;;;;;;;25.06;40.61;100205.69;1721871;82;21049;-55
2021/08/03 09:10:42;;;;;;;1.92;1.07;;;;;;;25.08;41.34;100202.69;1720146;82;21072;-55
2021/08/03 09:13:16;;;;;;;0.82;0.70;;;;;;;25.22;40.80;100196.81;1716642;83;20990;-55
2021/08/03 09:15:59;;;;;;;0.70;0.70;;;;;;;25.35;39.80;100199.41;1721886;82;21394;-56
2021/08/03 09:18:45;;;;;;;0.60;0.60;;;;;;;25.48;39.13;100201.99;1726446;82;21037;-55
2021/08/03 09:21:29;;;;;;;0.80;0.47;;;;;;;25.60;39.54;100204.33;1723817;82;21067;-55
2021/08/03 09:24:03;;;;;;;1.05;0.40;;;;;;;25.75;38.40;100192.38;1718571;82;21064;-57
2021/08/03 09:26:49;;;;;;;0.40;0.40;;;;;;;25.80;38.81;100195.84;1709286;82;21154;-56
2021/08/03 09:29:18;;;;;;;0.82;0.70;;;;;;;25.82;37.87;100192.30;1720012;82;21574;-56
2021/08/03 09:31:54;;;;;;;2.37;0.53;;;;;;;25.77;38.21;100187.45;1732790;82;21584;-56
2021/08/03 09:34:21;;;;;;;0.47;0.47;;;;;;;25.80;38.41;100183.56;1702842;83;21033;-56
2021/08/03 09:36:52;;;;;;;1.22;0.72;;;;;;;25.89;38.28;100178.83;1690447;83;20974;-56
2021/08/03 09:39:46;;;;;;;0.65;0.53;;;;;;;25.95;37.76;100176.30;1686351;83;21060;-55
2021/08/03 09:42:21;;;;;;;7.42;1.75;;;;;;;25.93;37.79;100173.86;1673011;85;21051;-56
2021/08/03 09:44:52;;;;;;;3.05;0.88;;;;;;;25.92;38.28;100163.23;1685291;83;20982;-50
2021/08/03 09:47:21;;;;;;;1.25;0.30;;;;;;;25.98;38.05;100162.87;1680327;84;21041;-51
2021/08/03 09:49:52;;;;;;;1.02;0.50;;;;;;;26.04;37.70;100159.52;1680539;84;21390;-51
2021/08/03 09:52:23;;;;;;;1.35;0.70;;;;;;;26.01;37.27;100154.10;1680266;84;20990;-50
2021/08/03 09:55:11;;;;;;;1.75;0.80;;;;;;;25.93;37.77;100149.29;1679583;84;21053;-51
2021/08/03 09:57:40;;;;;;;0.78;0.55;;;;;;;25.98;37.80;100151.95;1679427;84;21010;-51
2021/08/03 10:00:37;;;;;;;1.50;0.40;;;;;;;26.07;37.62;100149.37;1680177;84;21032;-51
2021/08/03 10:03:05;;;;;;;4.15;0.50;;;;;;;26.15;37.06;100148.69;1688397;83;21069;-51
2021/08/03 10:05:33;;;;;;;2.17;0.45;;;;;;;26.19;36.93;100146.18;1682082;83;21034;-51
2021/08/03 10:08:00;;;;;;;1.37;0.85;;;;;;;26.14;36.65;100141.59;1681461;84;21509;-51
2021/08/03 10:10:27;;;;;;;2.00;0.28;;;;;;;26.13;36.46;100149.55;1683684;84;21085;-50
2021/08/03 10:12:56;;;;;;;1.05;0.45;;;;;;;26.21;36.76;100147.49;1681246;84;20969;-50
2021/08/03 10:15:24;;;;;;;4.42;0.40;;;;;;;26.29;35.81;100150.09;1665239;84;20983;-52
2021/08/03 10:17:52;;;;;;;1.15;0.40;;;;;;;26.34;35.95;100149.22;1665667;84;20991;-52
2021/08/03 10:20:20;;;;;;;0.70;0.70;;;;;;;26.45;36.03;100153.41;1680711;84;21057;-53
2021/08/03 10:23:05;;;;;;;4.33;0.30;;;;;;;26.54;35.50;100147.52;1683694;84;21128;-52
2021/08/03 10:25:36;;;;;;;2.95;0.78;;;;;;;26.54;35.72;100144.78;1677941;84;21545;-52
2021/08/03 10:28:26;;;;;;;1.75;0.50;;;;;;;26.49;35.87;100144.86;1670350;84;38144;-52
2021/08/03 10:30:54;;;;;;;0.23;0.23;;;;;;;26.51;35.86;100145.37;1695823;84;21648;-53
2021/08/03 10:33:44;;;;;;;2.60;0.30;;;;;;;26.51;36.63;100141.83;1688991;81;21037;-53
2021/08/03 10:36:44;;;;;;;0.95;0.35;;;;;;;26.46;34.89;100142.72;1692402;83;21101;-53
2021/08/03 10:39:19;;;;;;;1.30;0.40;;;;;;;26.33;35.10;100143.48;1692102;83;21262;-52
2021/08/03 10:42:03;;;;;;;0.80;0.50;;;;;;;26.23;35.41;100147.20;1695195;84;21053;-52
2021/08/03 10:44:44;;;;;;;1.60;0.50;;;;;;;26.14;36.03;100148.42;1691862;83;21106;-52
2021/08/03 10:47:39;;;;;;;0.57;0.42;;;;;;;26.05;36.41;100152.95;1691594;83;20987;-52
2021/08/03 10:50:18;;;;;;;0.88;0.47;;;;;;;26.02;36.75;100147.52;1689758;83;21564;-52
2021/08/03 10:52:51;;;;;;;1.25;0.65;;;;;;;25.95;36.22;100149.00;1693502;83;21063;-53
2021/08/03 10:55:47;;;;;;;0.70;0.65;;;;;;;25.90;36.61;100146.30;1683546;83;21048;-53
2021/08/03 10:58:20;;;;;;;0.50;0.50;;;;;;;25.92;36.66;100144.95;1663140;84;21075;-53
2021/08/03 11:00:54;;;;;;;0.65;0.57;;;;;;;25.96;36.79;100152.00;1687281;83;20995;-53
2021/08/03 11:03:38;;;;;;;4.03;0.70;;;;;;;25.97;36.86;100149.52;1682205;84;21003;-53
2021/08/03 11:06:10;;;;;;;2.15;0.37;;;;;;;26.07;37.01;100148.55;1689660;83;21004;-53
2021/08/03 11:08:41;;;;;;;0.95;0.60;;;;;;;26.18;36.74;100141.28;1680642;84;21019;-53
2021/08/03 11:11:21;;;;;;;2.70;0.65;;;;;;;26.30;36.57;100141.38;1689008;83;21061;-53
2021/08/03 11:14:06;;;;;;;0.25;0.25;;;;;;;26.36;36.23;100138.23;1685884;83;21052;-53
2021/08/03 11:16:38;;;;;;;1.45;0.47;;;;;;;26.39;36.29;100140.92;1686734;83;21462;-53
2021/08/03 11:19:06;;;;;;;0.30;0.30;;;;;;;26.41;36.35;100129.16;1687017;84;21134;-53
2021/08/03 11:21:50;;;;;;;1.95;0.42;;;;;;;26.38;36.23;100131.91;1707145;83;21050;-53
2021/08/03 11:24:35;;;;;;;0.55;0.40;;;;;;;26.29;36.89;100130.98;1681052;83;21064;-53
2021/08/03 11:27:03;;;;;;;0.57;0.33;;;;;;;26.28;37.03;100133.47;1687471;83;21509;-53
2021/08/03 11:29:42;;;;;;;1.05;0.50;;;;;;;26.29;36.75;100127.44;1686035;83;21016;-53
2021/08/03 11:32:10;;;;;;;0.40;0.40;;;;;;;26.29;36.62;100126.88;1678106;83;21562;-52
2021/08/03 11:34:41;;;;;;;0.98;0.45;;;;;;;26.36;36.24;100125.14;1664948;84;21548;-52
2021/08/03 11:37:18;;;;;;;0.53;0.50;;;;;;;26.42;36.51;100119.27;1695565;83;21014;-52
2021/08/03 11:39:50;;;;;;;1.40;0.40;;;;;;;26.45;36.28;100119.78;1688288;83;20995;-53
2021/08/03 11:42:38;;;;;;;1.17;0.40;;;;;;;26.43;36.56;100121.47;1692552;83;21013;-52
2021/08/03 11:45:12;;;;;;;2.15;0.30;;;;;;;26.42;36.63;100123.38;1686457;84;21492;-54
2021/08/03 11:47:51;;;;;;;0.68;0.68;;;;;;;26.42;36.85;100126.67;1678176;84;21025;-54